sensor_id;sensor_type;location;lat;lon;timestamp;pressure;altitude;pressure_sealevel;temperature;humidity
1480;BME280;732;51.698;4.886;2023-07-13T00:01:17;101518.31;;;12.63;65.58
1480;BME280;732;51.698;4.886;2023-07-13T00:03:45;101556.38;;;12.84;65.83
1480;BME280;732;51.698;4.886;2023-07-13T00:06:14;101563.13;;;12.79;66.00
1480;BME280;732;51.698;4.886;2023-07-13T00:08:43;101567.78;;;12.94;65.70
1480;BME280;732;51.698;4.886;2023-07-13T00:11:11;101538.41;;;12.76;65.35
1480;BME280;732;51.698;4.886;2023-07-13T00:13:41;101544.44;;;12.55;66.46
1480;BME280;732;51.698;4.886;2023-07-13T00:16:11;101561.34;;;12.72;66.44
1480;BME280;732;51.698;4.886;2023-07-13T00:18:42;101556.31;;;12.69;66.61
1480;BME280;732;51.698;4.886;2023-07-13T00:21:11;101545.84;;;12.50;67.11
1480;BME280;732;51.698;4.886;2023-07-13T00:23:41;101528.50;;;12.30;67.75
1480;BME280;732;51.698;4.886;2023-07-13T00:26:11;101551.63;;;12.39;68.16
1480;BME280;732;51.698;4.886;2023-07-13T00:28:41;101541.69;;;12.40;68.46
1480;BME280;732;51.698;4.886;2023-07-13T00:31:11;101543.38;;;12.41;68.06
1480;BME280;732;51.698;4.886;2023-07-13T00:33:42;101548.19;;;12.54;68.07
1480;BME280;732;51.698;4.886;2023-07-13T00:36:11;101554.91;;;12.49;68.01
1480;BME280;732;51.698;4.886;2023-07-13T00:38:40;101548.53;;;12.50;68.34
1480;BME280;732;51.698;4.886;2023-07-13T00:41:10;101568.34;;;12.58;68.49
1480;BME280;732;51.698;4.886;2023-07-13T00:43:39;101564.44;;;12.60;67.89
1480;BME280;732;51.698;4.886;2023-07-13T00:46:33;101560.00;;;12.44;68.47
1480;BME280;732;51.698;4.886;2023-07-13T00:49:06;101524.69;;;12.16;68.96
1480;BME280;732;51.698;4.886;2023-07-13T00:51:39;101568.28;;;12.34;69.36
1480;BME280;732;51.698;4.886;2023-07-13T00:54:14;101561.69;;;12.45;69.25
1480;BME280;732;51.698;4.886;2023-07-13T00:56:45;101528.59;;;12.37;68.87
1480;BME280;732;51.698;4.886;2023-07-13T00:59:15;101572.16;;;12.63;68.76
1480;BME280;732;51.698;4.886;2023-07-13T01:01:46;101566.25;;;12.68;68.79
1480;BME280;732;51.698;4.886;2023-07-13T01:04:18;101573.13;;;12.71;69.09
1480;BME280;732;51.698;4.886;2023-07-13T01:06:47;101578.28;;;12.80;68.90
1480;BME280;732;51.698;4.886;2023-07-13T01:09:16;101552.66;;;12.61;68.65
1480;BME280;732;51.698;4.886;2023-07-13T01:11:45;101579.22;;;12.64;69.12
1480;BME280;732;51.698;4.886;2023-07-13T01:14:14;101572.16;;;12.63;69.17
1480;BME280;732;51.698;4.886;2023-07-13T01:16:46;101518.28;;;12.17;69.33
1480;BME280;732;51.698;4.886;2023-07-13T01:19:28;101556.41;;;12.29;69.90
1480;BME280;732;51.698;4.886;2023-07-13T01:22:07;101557.72;;;12.33;70.11
1480;BME280;732;51.698;4.886;2023-07-13T01:24:41;101574.22;;;12.30;70.34
1480;BME280;732;51.698;4.886;2023-07-13T01:27:13;101568.09;;;12.13;70.81
1480;BME280;732;51.698;4.886;2023-07-13T01:29:44;101562.53;;;12.14;70.88
1480;BME280;732;51.698;4.886;2023-07-13T01:32:19;101588.81;;;12.36;70.38
1480;BME280;732;51.698;4.886;2023-07-13T01:34:54;101575.09;;;12.22;70.58
1480;BME280;732;51.698;4.886;2023-07-13T01:37:26;101585.50;;;12.25;70.94
1480;BME280;732;51.698;4.886;2023-07-13T01:39:55;101592.59;;;12.18;71.40
1480;BME280;732;51.698;4.886;2023-07-13T01:42:24;101586.75;;;12.06;71.85
1480;BME280;732;51.698;4.886;2023-07-13T01:44:52;101591.81;;;12.01;72.10
1480;BME280;732;51.698;4.886;2023-07-13T01:47:22;101588.97;;;12.03;72.28
1480;BME280;732;51.698;4.886;2023-07-13T01:49:50;101552.91;;;11.72;72.17
1480;BME280;732;51.698;4.886;2023-07-13T01:52:19;101569.72;;;11.74;72.54
1480;BME280;732;51.698;4.886;2023-07-13T01:54:49;101599.59;;;11.79;73.42
1480;BME280;732;51.698;4.886;2023-07-13T01:57:18;101599.41;;;11.81;73.06
1480;BME280;732;51.698;4.886;2023-07-13T01:59:47;101559.47;;;11.61;73.17
1480;BME280;732;51.698;4.886;2023-07-13T02:02:16;101598.06;;;11.93;72.79
1480;BME280;732;51.698;4.886;2023-07-13T02:04:45;101600.44;;;11.96;72.95
1480;BME280;732;51.698;4.886;2023-07-13T02:07:15;101601.47;;;11.87;73.36
1480;BME280;732;51.698;4.886;2023-07-13T02:09:44;101608.50;;;11.80;73.82
1480;BME280;732;51.698;4.886;2023-07-13T02:12:15;101575.47;;;11.63;73.80
1480;BME280;732;51.698;4.886;2023-07-13T02:14:43;101599.63;;;11.71;73.66
1480;BME280;732;51.698;4.886;2023-07-13T02:17:13;101553.69;;;11.33;74.33
1480;BME280;732;51.698;4.886;2023-07-13T02:19:41;101583.53;;;11.46;74.77
1480;BME280;732;51.698;4.886;2023-07-13T02:22:10;101610.53;;;11.61;74.89
1480;BME280;732;51.698;4.886;2023-07-13T02:24:38;101599.50;;;11.48;75.09
1480;BME280;732;51.698;4.886;2023-07-13T02:27:07;101609.41;;;11.47;75.58
1480;BME280;732;51.698;4.886;2023-07-13T02:29:37;101589.44;;;11.42;75.86
1480;BME280;732;51.698;4.886;2023-07-13T02:32:07;101602.53;;;11.53;75.78
1480;BME280;732;51.698;4.886;2023-07-13T02:34:36;101592.78;;;11.52;75.60
1480;BME280;732;51.698;4.886;2023-07-13T02:37:05;101593.59;;;11.61;75.71
1480;BME280;732;51.698;4.886;2023-07-13T02:39:35;101597.47;;;11.66;75.45
1480;BME280;732;51.698;4.886;2023-07-13T02:42:05;101602.16;;;11.64;75.62
1480;BME280;732;51.698;4.886;2023-07-13T02:44:33;101597.09;;;11.61;75.76
1480;BME280;732;51.698;4.886;2023-07-13T02:47:03;101576.00;;;11.42;75.83
1480;BME280;732;51.698;4.886;2023-07-13T02:49:32;101606.22;;;11.52;76.32
1480;BME280;732;51.698;4.886;2023-07-13T02:52:02;101603.34;;;11.53;76.29
1480;BME280;732;51.698;4.886;2023-07-13T02:54:30;101601.34;;;11.56;76.60
1480;BME280;732;51.698;4.886;2023-07-13T02:56:59;101583.88;;;11.43;76.58
1480;BME280;732;51.698;4.886;2023-07-13T02:59:28;101597.09;;;11.61;76.37
1480;BME280;732;51.698;4.886;2023-07-13T03:01:56;101574.66;;;11.46;76.54
1480;BME280;732;51.698;4.886;2023-07-13T03:04:26;101588.75;;;11.48;76.71
1480;BME280;732;51.698;4.886;2023-07-13T03:06:55;101598.00;;;11.45;77.37
1480;BME280;732;51.698;4.886;2023-07-13T03:09:31;101541.97;;;11.09;77.53
1480;BME280;732;51.698;4.886;2023-07-13T03:12:01;101598.28;;;11.59;77.15
1480;BME280;732;51.698;4.886;2023-07-13T03:14:32;101607.38;;;11.58;76.98
1480;BME280;732;51.698;4.886;2023-07-13T03:17:04;101609.75;;;11.36;78.22
1480;BME280;732;51.698;4.886;2023-07-13T03:19:38;101604.03;;;11.23;79.00
1480;BME280;732;51.698;4.886;2023-07-13T03:22:07;101612.97;;;11.23;78.87
1480;BME280;732;51.698;4.886;2023-07-13T03:24:37;101584.41;;;11.22;78.62
1480;BME280;732;51.698;4.886;2023-07-13T03:27:07;101611.41;;;11.53;78.03
1480;BME280;732;51.698;4.886;2023-07-13T03:29:39;101608.91;;;11.44;78.10
1480;BME280;732;51.698;4.886;2023-07-13T03:32:08;101610.75;;;11.35;78.44
1480;BME280;732;51.698;4.886;2023-07-13T03:34:39;101610.44;;;11.30;78.67
1480;BME280;732;51.698;4.886;2023-07-13T03:37:08;101615.28;;;11.26;79.05
1480;BME280;732;51.698;4.886;2023-07-13T03:39:37;101618.31;;;11.40;78.38
1480;BME280;732;51.698;4.886;2023-07-13T03:42:06;101623.84;;;11.46;78.38
1480;BME280;732;51.698;4.886;2023-07-13T03:44:35;101589.28;;;11.27;78.35
1480;BME280;732;51.698;4.886;2023-07-13T03:47:04;101590.28;;;11.34;78.01
1480;BME280;732;51.698;4.886;2023-07-13T03:49:37;101593.28;;;11.23;78.14
1480;BME280;732;51.698;4.886;2023-07-13T03:52:06;101621.84;;;11.57;78.07
1480;BME280;732;51.698;4.886;2023-07-13T03:54:37;101624.34;;;11.50;78.26
1480;BME280;732;51.698;4.886;2023-07-13T03:57:09;101591.13;;;11.34;78.12
1480;BME280;732;51.698;4.886;2023-07-13T03:59:38;101622.50;;;11.50;78.43
1480;BME280;732;51.698;4.886;2023-07-13T04:02:09;101610.59;;;11.28;78.89
1480;BME280;732;51.698;4.886;2023-07-13T04:04:39;101627.88;;;11.42;78.59
1480;BME280;732;51.698;4.886;2023-07-13T04:07:08;101641.66;;;11.39;79.25
1480;BME280;732;51.698;4.886;2023-07-13T04:09:39;101647.72;;;11.58;78.66
1480;BME280;732;51.698;4.886;2023-07-13T04:12:10;101634.59;;;11.55;78.35
1480;BME280;732;51.698;4.886;2023-07-13T04:14:38;101648.53;;;11.66;77.78
1480;BME280;732;51.698;4.886;2023-07-13T04:17:07;101614.78;;;11.31;78.38
1480;BME280;732;51.698;4.886;2023-07-13T04:19:36;101654.59;;;11.60;78.43
1480;BME280;732;51.698;4.886;2023-07-13T04:22:06;101651.22;;;11.50;79.02
1480;BME280;732;51.698;4.886;2023-07-13T04:24:35;101611.75;;;11.42;78.35
1480;BME280;732;51.698;4.886;2023-07-13T04:27:05;101654.41;;;11.62;78.71
1480;BME280;732;51.698;4.886;2023-07-13T04:29:33;101656.59;;;11.66;78.84
1480;BME280;732;51.698;4.886;2023-07-13T04:32:03;101666.13;;;11.77;78.37
1480;BME280;732;51.698;4.886;2023-07-13T04:34:32;101644.97;;;11.99;77.66
1480;BME280;732;51.698;4.886;2023-07-13T04:37:02;101662.00;;;12.31;76.90
1480;BME280;732;51.698;4.886;2023-07-13T04:39:33;101632.75;;;12.28;76.30
1480;BME280;732;51.698;4.886;2023-07-13T04:42:03;101678.28;;;12.38;76.43
1480;BME280;732;51.698;4.886;2023-07-13T04:44:31;101666.97;;;12.42;76.36
1480;BME280;732;51.698;4.886;2023-07-13T04:47:00;101655.41;;;12.33;76.24
1480;BME280;732;51.698;4.886;2023-07-13T04:49:28;101675.16;;;12.57;76.22
1480;BME280;732;51.698;4.886;2023-07-13T04:51:57;101674.53;;;12.78;75.50
1480;BME280;732;51.698;4.886;2023-07-13T04:54:26;101664.06;;;12.92;75.02
1480;BME280;732;51.698;4.886;2023-07-13T04:56:56;101670.88;;;13.11;74.29
1480;BME280;732;51.698;4.886;2023-07-13T04:59:25;101669.03;;;13.03;74.50
1480;BME280;732;51.698;4.886;2023-07-13T05:01:54;101667.31;;;13.10;74.27
1480;BME280;732;51.698;4.886;2023-07-13T05:04:22;101677.31;;;13.25;73.90
1480;BME280;732;51.698;4.886;2023-07-13T05:06:53;101681.50;;;13.04;74.96
1480;BME280;732;51.698;4.886;2023-07-13T05:09:22;101653.97;;;12.94;74.64
1480;BME280;732;51.698;4.886;2023-07-13T05:11:51;101652.44;;;13.14;74.18
1480;BME280;732;51.698;4.886;2023-07-13T05:14:21;101677.56;;;13.53;73.41
1480;BME280;732;51.698;4.886;2023-07-13T05:16:50;101683.56;;;13.63;72.93
1480;BME280;732;51.698;4.886;2023-07-13T05:19:18;101683.47;;;13.72;72.40
1480;BME280;732;51.698;4.886;2023-07-13T05:21:47;101688.78;;;13.65;72.70
1480;BME280;732;51.698;4.886;2023-07-13T05:24:15;101692.63;;;13.71;72.79
1480;BME280;732;51.698;4.886;2023-07-13T05:26:52;101667.78;;;13.37;73.34
1480;BME280;732;51.698;4.886;2023-07-13T05:29:23;101692.34;;;13.19;74.45
1480;BME280;732;51.698;4.886;2023-07-13T05:31:52;101697.94;;;13.41;74.04
1480;BME280;732;51.698;4.886;2023-07-13T05:34:20;101691.00;;;13.61;73.58
1480;BME280;732;51.698;4.886;2023-07-13T05:36:49;101702.47;;;13.78;72.74
1480;BME280;732;51.698;4.886;2023-07-13T05:39:19;101669.63;;;13.60;72.93
1480;BME280;732;51.698;4.886;2023-07-13T05:41:48;101681.25;;;13.75;72.69
1480;BME280;732;51.698;4.886;2023-07-13T05:44:17;101693.50;;;14.01;71.62
1480;BME280;732;51.698;4.886;2023-07-13T05:46:48;101708.03;;;14.15;72.19
1480;BME280;732;51.698;4.886;2023-07-13T05:49:19;101668.56;;;14.14;71.04
1480;BME280;732;51.698;4.886;2023-07-13T05:51:48;101721.53;;;14.45;70.58
1480;BME280;732;51.698;4.886;2023-07-13T05:54:16;101703.19;;;14.25;71.11
1480;BME280;732;51.698;4.886;2023-07-13T05:56:45;101721.72;;;14.29;71.44
1480;BME280;732;51.698;4.886;2023-07-13T05:59:14;101720.50;;;14.16;71.77
1480;BME280;732;51.698;4.886;2023-07-13T06:01:43;101718.28;;;14.05;71.94
1480;BME280;732;51.698;4.886;2023-07-13T06:04:13;101720.50;;;14.16;71.89
1480;BME280;732;51.698;4.886;2023-07-13T06:06:42;101725.16;;;14.22;71.69
1480;BME280;732;51.698;4.886;2023-07-13T06:09:10;101686.25;;;14.02;71.55
1480;BME280;732;51.698;4.886;2023-07-13T06:11:39;101732.88;;;14.25;71.78
1480;BME280;732;51.698;4.886;2023-07-13T06:14:08;101742.19;;;14.53;71.17
1480;BME280;732;51.698;4.886;2023-07-13T06:16:36;101736.97;;;14.36;71.52
1480;BME280;732;51.698;4.886;2023-07-13T06:19:05;101740.13;;;14.70;70.48
1480;BME280;732;51.698;4.886;2023-07-13T06:21:35;101737.81;;;14.82;69.98
1480;BME280;732;51.698;4.886;2023-07-13T06:24:04;101747.50;;;15.13;69.33
1480;BME280;732;51.698;4.886;2023-07-13T06:26:32;101732.22;;;15.20;68.74
1480;BME280;732;51.698;4.886;2023-07-13T06:29:01;101737.31;;;15.30;68.42
1480;BME280;732;51.698;4.886;2023-07-13T06:31:29;101717.34;;;15.31;68.33
1480;BME280;732;51.698;4.886;2023-07-13T06:33:58;101748.31;;;15.50;67.68
1480;BME280;732;51.698;4.886;2023-07-13T06:36:27;101732.56;;;15.32;67.84
1480;BME280;732;51.698;4.886;2023-07-13T06:38:57;101749.22;;;15.35;67.78
1480;BME280;732;51.698;4.886;2023-07-13T06:41:26;101753.66;;;15.43;67.93
1480;BME280;732;51.698;4.886;2023-07-13T06:43:55;101755.06;;;15.17;68.31
1480;BME280;732;51.698;4.886;2023-07-13T06:46:24;101744.28;;;15.02;68.30
1480;BME280;732;51.698;4.886;2023-07-13T06:48:52;101763.88;;;15.04;68.71
1480;BME280;732;51.698;4.886;2023-07-13T06:51:21;101763.88;;;15.04;68.83
1480;BME280;732;51.698;4.886;2023-07-13T06:53:51;101753.56;;;15.15;68.24
1480;BME280;732;51.698;4.886;2023-07-13T06:56:23;101752.56;;;15.16;68.31
1480;BME280;732;51.698;4.886;2023-07-13T06:58:51;101767.19;;;15.43;67.04
1480;BME280;732;51.698;4.886;2023-07-13T07:01:20;101761.41;;;15.68;67.15
1480;BME280;732;51.698;4.886;2023-07-13T07:03:49;101755.66;;;16.06;66.50
1480;BME280;732;51.698;4.886;2023-07-13T07:06:20;101749.50;;;15.84;64.92
1480;BME280;732;51.698;4.886;2023-07-13T07:08:51;101767.66;;;15.90;65.24
1480;BME280;732;51.698;4.886;2023-07-13T07:11:23;101762.28;;;15.53;65.64
1480;BME280;732;51.698;4.886;2023-07-13T07:13:53;101769.88;;;15.65;66.33
1480;BME280;732;51.698;4.886;2023-07-13T07:16:24;101751.59;;;15.67;65.42
1480;BME280;732;51.698;4.886;2023-07-13T07:18:53;101768.97;;;15.79;64.90
1480;BME280;732;51.698;4.886;2023-07-13T07:21:21;101749.13;;;15.72;64.16
1480;BME280;732;51.698;4.886;2023-07-13T07:23:52;101762.66;;;15.94;63.83
1480;BME280;732;51.698;4.886;2023-07-13T07:26:22;101769.41;;;16.33;63.62
1480;BME280;732;51.698;4.886;2023-07-13T07:28:56;101774.78;;;16.26;62.83
1480;BME280;732;51.698;4.886;2023-07-13T07:31:28;101780.25;;;16.33;62.92
1480;BME280;732;51.698;4.886;2023-07-13T07:33:59;101775.19;;;16.30;62.36
1480;BME280;732;51.698;4.886;2023-07-13T07:36:29;101782.16;;;16.11;62.41
1480;BME280;732;51.698;4.886;2023-07-13T07:39:01;101754.94;;;16.19;62.28
1480;BME280;732;51.698;4.886;2023-07-13T07:41:31;101768.31;;;16.27;61.75
1480;BME280;732;51.698;4.886;2023-07-13T07:44:03;101770.31;;;16.47;61.70
1480;BME280;732;51.698;4.886;2023-07-13T07:46:34;101754.66;;;16.42;61.20
1480;BME280;732;51.698;4.886;2023-07-13T07:49:02;101781.00;;;16.97;60.30
1480;BME280;732;51.698;4.886;2023-07-13T07:51:31;101788.53;;;17.01;60.29
1480;BME280;732;51.698;4.886;2023-07-13T07:53:59;101792.94;;;17.09;60.35
1480;BME280;732;51.698;4.886;2023-07-13T07:56:28;101785.09;;;17.48;58.94
1480;BME280;732;51.698;4.886;2023-07-13T07:59:01;101786.63;;;17.84;58.20
1480;BME280;732;51.698;4.886;2023-07-13T08:01:33;101785.56;;;17.72;57.94
1480;BME280;732;51.698;4.886;2023-07-13T08:04:04;101787.25;;;17.93;55.90
1480;BME280;732;51.698;4.886;2023-07-13T08:06:36;101783.28;;;17.89;55.71
1480;BME280;732;51.698;4.886;2023-07-13T08:09:07;101762.56;;;18.35;54.50
1480;BME280;732;51.698;4.886;2023-07-13T08:11:36;101791.22;;;18.96;53.42
1480;BME280;732;51.698;4.886;2023-07-13T08:14:09;101780.25;;;19.55;50.65
1480;BME280;732;51.698;4.886;2023-07-13T08:16:37;101781.19;;;19.99;51.23
1480;BME280;732;51.698;4.886;2023-07-13T08:19:06;101770.13;;;20.38;49.18
1480;BME280;732;51.698;4.886;2023-07-13T08:21:35;101777.25;;;20.58;48.33
1480;BME280;732;51.698;4.886;2023-07-13T08:24:05;101781.69;;;20.52;48.49
1480;BME280;732;51.698;4.886;2023-07-13T08:26:34;101772.63;;;20.77;48.87
1480;BME280;732;51.698;4.886;2023-07-13T08:29:03;101749.75;;;20.41;48.92
1480;BME280;732;51.698;4.886;2023-07-13T08:31:33;101767.25;;;19.82;50.62
1480;BME280;732;51.698;4.886;2023-07-13T08:34:02;101773.81;;;19.49;52.17
1480;BME280;732;51.698;4.886;2023-07-13T08:36:30;101779.53;;;18.96;53.44
1480;BME280;732;51.698;4.886;2023-07-13T08:38:59;101792.66;;;18.13;54.54
1480;BME280;732;51.698;4.886;2023-07-13T08:41:27;101798.94;;;17.87;53.91
1480;BME280;732;51.698;4.886;2023-07-13T08:43:59;101774.09;;;18.23;52.45
1480;BME280;732;51.698;4.886;2023-07-13T08:46:35;101765.88;;;18.57;51.89
1480;BME280;732;51.698;4.886;2023-07-13T08:49:09;101790.06;;;19.24;50.20
1480;BME280;732;51.698;4.886;2023-07-13T08:51:44;101782.47;;;19.65;50.00
1480;BME280;732;51.698;4.886;2023-07-13T08:54:21;101767.28;;;20.26;48.42
1480;BME280;732;51.698;4.886;2023-07-13T08:56:52;101787.06;;;19.96;48.68
1480;BME280;732;51.698;4.886;2023-07-13T08:59:26;101778.16;;;19.57;50.03
1480;BME280;732;51.698;4.886;2023-07-13T09:02:16;101778.28;;;20.19;49.32
1480;BME280;732;51.698;4.886;2023-07-13T09:04:54;101751.66;;;20.40;49.23
1480;BME280;732;51.698;4.886;2023-07-13T09:07:37;101775.84;;;21.04;46.87
1480;BME280;732;51.698;4.886;2023-07-13T09:10:15;101757.44;;;21.30;46.14
1480;BME280;732;51.698;4.886;2023-07-13T09:12:56;101770.72;;;21.80;45.52
1480;BME280;732;51.698;4.886;2023-07-13T09:15:31;101771.38;;;21.10;45.80
1480;BME280;732;51.698;4.886;2023-07-13T09:18:08;101780.19;;;21.54;44.24
1480;BME280;732;51.698;4.886;2023-07-13T09:20:44;101776.06;;;21.75;42.99
1480;BME280;732;51.698;4.886;2023-07-13T09:23:17;101770.63;;;21.87;42.85
1480;BME280;732;51.698;4.886;2023-07-13T09:25:49;101754.00;;;21.89;44.09
1480;BME280;732;51.698;4.886;2023-07-13T09:28:25;101764.25;;;22.17;42.81
1480;BME280;732;51.698;4.886;2023-07-13T09:31:01;101775.81;;;21.77;42.74
1480;BME280;732;51.698;4.886;2023-07-13T09:33:35;101754.16;;;20.79;44.86
1480;BME280;732;51.698;4.886;2023-07-13T09:36:18;101778.94;;;20.15;46.57
1480;BME280;732;51.698;4.886;2023-07-13T09:38:49;101788.16;;;19.95;47.41
1480;BME280;732;51.698;4.886;2023-07-13T09:41:37;101784.72;;;19.42;48.00
1480;BME280;732;51.698;4.886;2023-07-13T09:44:10;101765.72;;;18.97;48.41
1480;BME280;732;51.698;4.886;2023-07-13T09:46:44;101802.22;;;19.28;49.35
1480;BME280;732;51.698;4.886;2023-07-13T09:49:15;101798.34;;;20.00;48.05
1480;BME280;732;51.698;4.886;2023-07-13T09:51:44;101808.81;;;20.03;47.60
1480;BME280;732;51.698;4.886;2023-07-13T09:54:21;101802.41;;;19.90;47.69
1480;BME280;732;51.698;4.886;2023-07-13T09:56:55;101807.25;;;19.18;48.18
1480;BME280;732;51.698;4.886;2023-07-13T09:59:33;101820.06;;;19.10;50.15
1480;BME280;732;51.698;4.886;2023-07-13T10:02:24;101804.69;;;18.77;50.56
1480;BME280;732;51.698;4.886;2023-07-13T10:05:00;101811.16;;;18.76;51.45
1480;BME280;732;51.698;4.886;2023-07-13T10:07:31;101814.38;;;18.46;51.58
1480;BME280;732;51.698;4.886;2023-07-13T10:10:01;101795.97;;;18.62;51.49
1480;BME280;732;51.698;4.886;2023-07-13T10:12:36;101815.72;;;18.96;50.60
1480;BME280;732;51.698;4.886;2023-07-13T10:15:14;101791.81;;;19.50;47.95
1480;BME280;732;51.698;4.886;2023-07-13T10:17:51;101826.88;;;19.97;46.11
1480;BME280;732;51.698;4.886;2023-07-13T10:20:24;101841.13;;;19.29;50.86
1480;BME280;732;51.698;4.886;2023-07-13T10:23:00;101840.94;;;17.84;58.22
1480;BME280;732;51.698;4.886;2023-07-13T10:25:33;101834.25;;;16.41;62.97
1480;BME280;732;51.698;4.886;2023-07-13T10:28:09;101808.94;;;15.55;65.82
1480;BME280;732;51.698;4.886;2023-07-13T10:30:43;101856.44;;;15.65;65.57
1480;BME280;732;51.698;4.886;2023-07-13T10:33:14;101835.66;;;15.65;65.41
1480;BME280;732;51.698;4.886;2023-07-13T10:35:45;101849.84;;;16.11;64.75
1480;BME280;732;51.698;4.886;2023-07-13T10:38:18;101849.06;;;16.45;62.66
1480;BME280;732;51.698;4.886;2023-07-13T10:40:56;101843.34;;;16.97;63.37
1480;BME280;732;51.698;4.886;2023-07-13T10:43:28;101829.84;;;17.59;63.59
1480;BME280;732;51.698;4.886;2023-07-13T10:45:59;101841.56;;;18.00;60.42
1480;BME280;732;51.698;4.886;2023-07-13T10:48:29;101837.81;;;18.48;58.23
1480;BME280;732;51.698;4.886;2023-07-13T10:51:01;101844.94;;;19.14;58.37
1480;BME280;732;51.698;4.886;2023-07-13T10:53:32;101843.47;;;19.57;53.83
1480;BME280;732;51.698;4.886;2023-07-13T10:56:02;101851.44;;;19.84;52.46
1480;BME280;732;51.698;4.886;2023-07-13T10:58:35;101845.22;;;20.09;49.32
1480;BME280;732;51.698;4.886;2023-07-13T11:01:08;101842.28;;;20.35;47.00
1480;BME280;732;51.698;4.886;2023-07-13T11:03:48;101845.06;;;20.47;45.56
1480;BME280;732;51.698;4.886;2023-07-13T11:06:37;101848.66;;;20.48;45.52
1480;BME280;732;51.698;4.886;2023-07-13T11:09:30;101838.84;;;20.65;46.80
1480;BME280;732;51.698;4.886;2023-07-13T11:12:00;101820.38;;;20.67;45.23
1480;BME280;732;51.698;4.886;2023-07-13T11:14:35;101824.94;;;20.48;43.66
1480;BME280;732;51.698;4.886;2023-07-13T11:17:33;101848.06;;;19.88;44.35
1480;BME280;732;51.698;4.886;2023-07-13T11:20:21;101846.22;;;19.82;45.80
1480;BME280;732;51.698;4.886;2023-07-13T11:23:08;101860.25;;;19.93;44.90
1480;BME280;732;51.698;4.886;2023-07-13T11:25:37;101835.63;;;19.42;44.87
1480;BME280;732;51.698;4.886;2023-07-13T11:28:17;101835.22;;;19.70;44.42
1480;BME280;732;51.698;4.886;2023-07-13T11:31:03;101846.66;;;20.11;43.93
1480;BME280;732;51.698;4.886;2023-07-13T11:33:53;101846.97;;;20.03;42.32
1480;BME280;732;51.698;4.886;2023-07-13T11:36:27;101838.28;;;20.13;43.12
1480;BME280;732;51.698;4.886;2023-07-13T11:39:04;101840.84;;;20.51;44.04
1480;BME280;732;51.698;4.886;2023-07-13T11:41:36;101834.00;;;20.42;42.64
1480;BME280;732;51.698;4.886;2023-07-13T11:44:12;101828.84;;;20.78;41.75
1480;BME280;732;51.698;4.886;2023-07-13T11:46:47;101829.38;;;20.86;40.72
1480;BME280;732;51.698;4.886;2023-07-13T11:49:21;101836.38;;;21.31;41.09
1480;BME280;732;51.698;4.886;2023-07-13T11:51:51;101822.13;;;21.60;38.38
1480;BME280;732;51.698;4.886;2023-07-13T11:54:28;101826.19;;;21.69;40.69
1480;BME280;732;51.698;4.886;2023-07-13T11:57:02;101847.19;;;22.11;38.97
1480;BME280;732;51.698;4.886;2023-07-13T11:59:38;101837.44;;;22.15;38.74
1480;BME280;732;51.698;4.886;2023-07-13T12:02:17;101840.25;;;22.68;40.17
1480;BME280;732;51.698;4.886;2023-07-13T12:04:47;101847.38;;;22.92;38.58
1480;BME280;732;51.698;4.886;2023-07-13T12:07:19;101849.69;;;23.12;38.44
1480;BME280;732;51.698;4.886;2023-07-13T12:09:49;101828.13;;;22.75;37.79
1480;BME280;732;51.698;4.886;2023-07-13T12:12:28;101843.41;;;22.36;38.80
1480;BME280;732;51.698;4.886;2023-07-13T12:14:57;101850.94;;;21.86;39.06
1480;BME280;732;51.698;4.886;2023-07-13T12:17:26;101854.59;;;21.38;40.29
1480;BME280;732;51.698;4.886;2023-07-13T12:19:56;101840.25;;;21.54;39.96
1480;BME280;732;51.698;4.886;2023-07-13T12:22:25;101860.91;;;21.92;38.34
1480;BME280;732;51.698;4.886;2023-07-13T12:24:56;101847.75;;;22.01;37.73
1480;BME280;732;51.698;4.886;2023-07-13T12:27:27;101846.84;;;21.65;37.67
1480;BME280;732;51.698;4.886;2023-07-13T12:30:04;101834.81;;;21.35;38.96
1480;BME280;732;51.698;4.886;2023-07-13T12:32:34;101840.75;;;21.51;39.93
1480;BME280;732;51.698;4.886;2023-07-13T12:35:15;101849.25;;;21.85;39.44
1480;BME280;732;51.698;4.886;2023-07-13T12:37:47;101859.94;;;21.75;39.24
1480;BME280;732;51.698;4.886;2023-07-13T12:40:19;101861.94;;;21.67;39.10
1480;BME280;732;51.698;4.886;2023-07-13T12:42:51;101865.47;;;21.68;39.34
1480;BME280;732;51.698;4.886;2023-07-13T12:45:22;101867.75;;;21.22;39.71
1480;BME280;732;51.698;4.886;2023-07-13T12:47:56;101852.34;;;20.97;39.90
1480;BME280;732;51.698;4.886;2023-07-13T12:50:33;101855.19;;;21.40;40.09
1480;BME280;732;51.698;4.886;2023-07-13T12:53:05;101833.38;;;21.51;39.05
1480;BME280;732;51.698;4.886;2023-07-13T12:55:44;101857.44;;;21.24;40.21
1480;BME280;732;51.698;4.886;2023-07-13T12:58:26;101838.34;;;20.50;40.44
1480;BME280;732;51.698;4.886;2023-07-13T13:00:57;101835.72;;;20.18;41.38
1480;BME280;732;51.698;4.886;2023-07-13T13:03:31;101877.31;;;20.06;42.33
1480;BME280;732;51.698;4.886;2023-07-13T13:06:03;101865.03;;;19.90;42.24
1480;BME280;732;51.698;4.886;2023-07-13T13:08:35;101872.81;;;19.87;42.63
1480;BME280;732;51.698;4.886;2023-07-13T13:11:05;101878.41;;;19.99;43.22
1480;BME280;732;51.698;4.886;2023-07-13T13:13:34;101892.41;;;20.02;43.54
1480;BME280;732;51.698;4.886;2023-07-13T13:16:05;101866.34;;;20.13;44.83
1480;BME280;732;51.698;4.886;2023-07-13T13:18:39;101890.81;;;20.45;45.19
1480;BME280;732;51.698;4.886;2023-07-13T13:21:08;101885.59;;;20.44;44.45
1480;BME280;732;51.698;4.886;2023-07-13T13:23:37;101872.69;;;20.32;44.50
1480;BME280;732;51.698;4.886;2023-07-13T13:26:11;101890.38;;;20.74;44.43
1480;BME280;732;51.698;4.886;2023-07-13T13:28:41;101863.09;;;20.74;44.57
1480;BME280;732;51.698;4.886;2023-07-13T13:31:10;101885.81;;;21.42;43.67
1480;BME280;732;51.698;4.886;2023-07-13T13:33:41;101874.53;;;21.80;43.16
1480;BME280;732;51.698;4.886;2023-07-13T13:36:17;101878.88;;;21.58;41.31
1480;BME280;732;51.698;4.886;2023-07-13T13:38:47;101846.56;;;21.06;42.43
1480;BME280;732;51.698;4.886;2023-07-13T13:41:17;101850.28;;;21.11;43.17
1480;BME280;732;51.698;4.886;2023-07-13T13:43:46;101875.56;;;21.37;43.32
1480;BME280;732;51.698;4.886;2023-07-13T13:46:18;101876.28;;;20.77;44.05